Time;durP1;ratioP1;P1;durP2;ratioP2;P2;SDS_P1;SDS_P2;PMS_P1;PMS_P2;Temp;Humidity;BMP_temperature;BMP_pressure;BME280_temperature;BME280_humidity;BME280_pressure;Samples;Min_cycle;Max_cycle;Signal;HPM_P1;HPM_P2
2023/05/11 00:00:29;;;;;;;3.90;3.45;;;;;;;;;;4943253;28;20070;-80
2023/05/11 00:02:54;;;;;;;5.47;3.90;;;;;;;;;;4953069;28;20027;-80
2023/05/11 00:05:20;;;;;;;4.30;3.90;;;;;;;;;;4952479;28;20050;-78
2023/05/11 00:07:48;;;;;;;4.18;3.70;;;;;;;;;;4970565;28;20027;-80
2023/05/11 00:10:13;;;;;;;6.00;3.95;;;;;;;;;;4974259;28;20054;-79
2023/05/11 00:12:39;;;;;;;3.88;3.58;;;;;;;;;;4954728;28;20022;-81
2023/05/11 00:15:07;;;;;;;5.68;3.83;;;;;;;;;;4954486;28;20101;-78
2023/05/11 00:17:33;;;;;;;3.33;3.10;;;;;;;;;;4970651;28;20106;-78
2023/05/11 00:19:58;;;;;;;3.70;3.40;;;;;;;;;;4968966;28;20498;-79
2023/05/11 00:22:24;;;;;;;6.00;4.18;;;;;;;;;;4955615;28;20027;-78
2023/05/11 00:24:49;;;;;;;4.95;3.67;;;;;;;;;;4966678;28;20065;-79
2023/05/11 00:27:15;;;;;;;3.88;3.47;;;;;;;;;;4951305;28;20026;-78
2023/05/11 00:29:40;;;;;;;4.10;3.60;;;;;;;;;;4966867;28;20092;-79
2023/05/11 00:32:08;;;;;;;4.20;3.28;;;;;;;;;;4950872;28;20560;-80
2023/05/11 00:34:34;;;;;;;5.28;3.50;;;;;;;;;;4953021;28;20015;-79
2023/05/11 00:36:59;;;;;;;4.25;3.53;;;;;;;;;;4957706;28;20542;-80
2023/05/11 00:39:26;;;;;;;3.70;3.40;;;;;;;;;;4974512;28;20089;-79
2023/05/11 00:41:54;;;;;;;4.35;3.55;;;;;;;;;;4955841;28;20023;-78
2023/05/11 00:44:27;;;;;;;8.30;3.67;;;;;;;;;;4972591;28;20051;-79
2023/05/11 00:46:53;;;;;;;5.80;3.70;;;;;;;;;;4972356;28;20026;-79
2023/05/11 00:49:22;;;;;;;6.03;3.80;;;;;;;;;;4972959;28;20035;-80
2023/05/11 00:51:47;;;;;;;4.60;4.20;;;;;;;;;;4950631;28;20047;-78
2023/05/11 00:54:31;;;;;;;5.90;4.03;;;;;;;;;;4973058;28;20026;-78
2023/05/11 00:56:57;;;;;;;4.65;4.20;;;;;;;;;;4936672;29;20059;-78
2023/05/11 00:59:29;;;;;;;4.32;3.92;;;;;;;;;;4962474;28;20576;-78
2023/05/11 01:01:57;;;;;;;5.75;3.47;;;;;;;;;;4947994;28;20035;-79
2023/05/11 01:04:23;;;;;;;4.00;3.67;;;;;;;;;;4933205;28;20031;-77
2023/05/11 01:06:48;;;;;;;5.35;3.85;;;;;;;;;;4948039;28;20018;-77
2023/05/11 01:09:31;;;;;;;6.07;3.63;;;;;;;;;;4966710;28;20051;-78
2023/05/11 01:12:01;;;;;;;5.65;3.50;;;;;;;;;;4951345;28;20081;-77
2023/05/11 01:14:33;;;;;;;4.68;3.67;;;;;;;;;;4949276;28;20029;-77
2023/05/11 01:17:02;;;;;;;4.45;4.03;;;;;;;;;;4967245;28;20026;-78
2023/05/11 01:19:36;;;;;;;15.45;4.32;;;;;;;;;;4949996;28;20018;-78
2023/05/11 01:22:08;;;;;;;6.22;4.10;;;;;;;;;;4967002;28;20031;-78
2023/05/11 01:24:52;;;;;;;3.88;3.58;;;;;;;;;;4954591;28;20173;-78
2023/05/11 01:27:18;;;;;;;7.50;4.10;;;;;;;;;;4949156;28;20019;-78
2023/05/11 01:30:00;;;;;;;4.80;3.80;;;;;;;;;;4967732;28;20481;-78
2023/05/11 01:32:30;;;;;;;4.38;3.97;;;;;;;;;;4967401;28;20311;-77
2023/05/11 01:35:05;;;;;;;3.97;3.67;;;;;;;;;;4949914;28;20018;-78
2023/05/11 01:37:31;;;;;;;5.95;4.10;;;;;;;;;;4949387;28;20046;-78
2023/05/11 01:39:57;;;;;;;4.97;4.45;;;;;;;;;;4950408;28;20472;-78
2023/05/11 01:42:42;;;;;;;3.97;3.58;;;;;;;;;;4950279;28;20024;-76
2023/05/11 01:45:09;;;;;;;3.90;3.60;;;;;;;;;;4949899;28;20030;-80
2023/05/11 01:47:39;;;;;;;6.20;4.28;;;;;;;;;;4955162;28;20027;-78
2023/05/11 01:50:23;;;;;;;4.15;3.65;;;;;;;;;;4962098;28;20027;-80
2023/05/11 01:52:49;;;;;;;5.95;3.85;;;;;;;;;;4958503;28;20105;-79
2023/05/11 01:55:18;;;;;;;6.43;4.43;;;;;;;;;;4952785;28;20042;-79
2023/05/11 01:57:58;;;;;;;4.70;4.25;;;;;;;;;;4949249;28;20082;-80
2023/05/11 02:00:33;;;;;;;4.60;4.30;;;;;;;;;;4972588;28;20053;-79
2023/05/11 02:03:00;;;;;;;4.82;4.32;;;;;;;;;;4973052;28;20387;-79
2023/05/11 02:05:27;;;;;;;4.57;4.18;;;;;;;;;;4939185;28;20802;-79
2023/05/11 02:07:53;;;;;;;5.38;4.50;;;;;;;;;;4975732;28;20031;-78
2023/05/11 02:10:18;;;;;;;5.22;4.57;;;;;;;;;;4954846;28;20030;-79
2023/05/11 02:12:45;;;;;;;6.85;4.72;;;;;;;;;;4973971;28;20041;-80
2023/05/11 02:15:12;;;;;;;5.03;4.55;;;;;;;;;;4979216;28;20027;-78
2023/05/11 02:17:39;;;;;;;5.03;4.63;;;;;;;;;;4962052;28;20026;-80
2023/05/11 02:20:06;;;;;;;5.82;5.10;;;;;;;;;;4960190;28;20027;-79
2023/05/11 02:22:32;;;;;;;5.70;5.22;;;;;;;;;;4957977;28;20507;-78
2023/05/11 02:24:57;;;;;;;7.93;5.53;;;;;;;;;;4952258;28;20026;-78
2023/05/11 02:27:23;;;;;;;5.25;4.85;;;;;;;;;;4953299;28;20543;-79
2023/05/11 02:29:48;;;;;;;6.53;5.50;;;;;;;;;;4949925;29;20114;-78
2023/05/11 02:32:16;;;;;;;6.47;5.75;;;;;;;;;;4968306;28;20109;-79
2023/05/11 02:34:42;;;;;;;6.10;5.70;;;;;;;;;;4966566;28;20030;-79
2023/05/11 02:37:15;;;;;;;6.07;5.47;;;;;;;;;;4970236;28;20030;-80
2023/05/11 02:39:43;;;;;;;7.20;6.45;;;;;;;;;;4985322;28;20092;-80
2023/05/11 02:42:14;;;;;;;6.25;5.75;;;;;;;;;;4979545;28;20035;-79
2023/05/11 02:44:44;;;;;;;6.57;6.07;;;;;;;;;;4960064;28;20027;-79
2023/05/11 02:47:11;;;;;;;8.38;6.32;;;;;;;;;;4961019;28;20026;-79
2023/05/11 02:49:37;;;;;;;6.90;6.30;;;;;;;;;;4973896;28;20047;-80
2023/05/11 02:52:04;;;;;;;8.15;7.22;;;;;;;;;;4957949;28;20027;-78
2023/05/11 02:54:30;;;;;;;6.07;5.43;;;;;;;;;;4953411;28;20125;-77
2023/05/11 02:56:56;;;;;;;6.20;5.70;;;;;;;;;;4953095;28;20395;-79
2023/05/11 02:59:22;;;;;;;6.22;5.72;;;;;;;;;;4953333;28;20039;-78
2023/05/11 03:01:48;;;;;;;6.75;6.07;;;;;;;;;;4953282;28;20029;-78
2023/05/11 03:04:13;;;;;;;8.48;6.13;;;;;;;;;;4976734;28;20027;-79
2023/05/11 03:06:39;;;;;;;6.55;6.05;;;;;;;;;;4957457;28;20094;-79
2023/05/11 03:09:05;;;;;;;7.10;6.50;;;;;;;;;;4955753;28;20030;-78
2023/05/11 03:11:30;;;;;;;6.70;6.03;;;;;;;;;;4973121;28;20053;-78
2023/05/11 03:13:56;;;;;;;6.97;6.30;;;;;;;;;;4973436;28;20034;-79
2023/05/11 03:16:22;;;;;;;7.70;6.88;;;;;;;;;;4952505;28;20026;-79
2023/05/11 03:18:48;;;;;;;8.80;6.38;;;;;;;;;;4953536;28;20049;-78
2023/05/11 03:21:15;;;;;;;6.85;6.25;;;;;;;;;;4971818;28;20015;-78
2023/05/11 03:23:40;;;;;;;7.93;7.18;;;;;;;;;;4953111;28;20022;-79
2023/05/11 03:26:06;;;;;;;7.60;7.00;;;;;;;;;;4966364;28;20030;-78
2023/05/11 03:28:31;;;;;;;8.48;7.47;;;;;;;;;;4944617;28;20042;-78
2023/05/11 03:30:57;;;;;;;7.22;6.60;;;;;;;;;;4952269;28;20023;-78
2023/05/11 03:33:22;;;;;;;6.90;6.30;;;;;;;;;;4968560;28;20042;-78
2023/05/11 03:35:49;;;;;;;6.88;6.28;;;;;;;;;;4951716;28;20678;-78
2023/05/11 03:38:15;;;;;;;7.25;6.10;;;;;;;;;;4969347;28;20023;-78
2023/05/11 03:40:41;;;;;;;7.78;7.15;;;;;;;;;;4952475;28;20559;-78
2023/05/11 03:43:07;;;;;;;7.10;6.53;;;;;;;;;;4968425;28;20031;-78
2023/05/11 03:45:33;;;;;;;7.97;7.18;;;;;;;;;;4968813;28;20035;-78
2023/05/11 03:47:58;;;;;;;8.63;6.50;;;;;;;;;;4969592;28;20465;-78
2023/05/11 03:50:24;;;;;;;6.95;6.35;;;;;;;;;;4968491;28;20027;-79
2023/05/11 03:52:51;;;;;;;7.18;6.57;;;;;;;;;;4967522;28;20019;-77
2023/05/11 03:55:16;;;;;;;8.95;8.15;;;;;;;;;;4965512;28;20058;-78
2023/05/11 03:57:42;;;;;;;8.02;7.30;;;;;;;;;;4949023;28;20023;-77
2023/05/11 04:00:09;;;;;;;7.85;7.13;;;;;;;;;;4947569;28;20058;-78
2023/05/11 04:02:35;;;;;;;9.45;7.55;;;;;;;;;;4965043;28;20077;-77
2023/05/11 04:05:00;;;;;;;10.27;8.95;;;;;;;;;;4947475;28;20489;-77
2023/05/11 04:07:25;;;;;;;8.20;7.50;;;;;;;;;;4966722;28;20682;-76
2023/05/11 04:09:51;;;;;;;8.52;7.70;;;;;;;;;;4948299;28;20042;-77
2023/05/11 04:12:16;;;;;;;8.50;7.80;;;;;;;;;;4948828;28;20023;-78
2023/05/11 04:14:42;;;;;;;15.55;13.77;;;;;;;;;;4967037;28;20033;-78
2023/05/11 04:17:07;;;;;;;9.43;8.57;;;;;;;;;;4965715;28;20022;-77
2023/05/11 04:19:32;;;;;;;9.23;8.53;;;;;;;;;;4948836;28;20093;-77
2023/05/11 04:21:57;;;;;;;9.15;8.45;;;;;;;;;;4968439;28;20932;-78
2023/05/11 04:24:23;;;;;;;9.63;8.20;;;;;;;;;;4970095;28;20018;-78
2023/05/11 04:26:54;;;;;;;9.60;8.80;;;;;;;;;;4950573;28;20026;-78
2023/05/11 04:29:19;;;;;;;9.45;8.52;;;;;;;;;;4948906;28;20186;-77
2023/05/11 04:31:44;;;;;;;9.65;8.77;;;;;;;;;;4970206;28;20104;-78
2023/05/11 04:34:13;;;;;;;10.48;9.68;;;;;;;;;;4950622;28;20019;-78
2023/05/11 04:36:38;;;;;;;10.40;9.60;;;;;;;;;;4968136;28;20023;-76
2023/05/11 04:39:04;;;;;;;10.80;9.75;;;;;;;;;;4969116;28;20058;-79
2023/05/11 04:41:35;;;;;;;10.95;9.95;;;;;;;;;;4974118;28;20130;-78
2023/05/11 04:44:01;;;;;;;12.55;10.52;;;;;;;;;;4953146;28;20090;-78
2023/05/11 04:46:26;;;;;;;12.07;10.80;;;;;;;;;;4954103;28;20019;-79
2023/05/11 04:48:51;;;;;;;10.35;9.48;;;;;;;;;;4952301;28;20221;-78
2023/05/11 04:51:17;;;;;;;11.32;10.43;;;;;;;;;;4967063;28;20050;-78
2023/05/11 04:53:42;;;;;;;10.73;9.93;;;;;;;;;;4950983;28;20027;-78
2023/05/11 04:56:07;;;;;;;12.10;10.95;;;;;;;;;;4949985;28;20096;-79
2023/05/11 04:58:32;;;;;;;12.32;11.23;;;;;;;;;;4952403;28;20493;-77
2023/05/11 05:00:59;;;;;;;11.77;10.75;;;;;;;;;;4948619;28;20054;-78
2023/05/11 05:03:28;;;;;;;12.65;11.55;;;;;;;;;;4966058;28;20025;-80
2023/05/11 05:05:54;;;;;;;12.27;10.68;;;;;;;;;;4967327;28;20435;-78
2023/05/11 05:08:20;;;;;;;10.90;9.95;;;;;;;;;;4947507;28;20070;-77
2023/05/11 05:10:47;;;;;;;10.75;9.82;;;;;;;;;;4965423;28;20026;-78
2023/05/11 05:13:13;;;;;;;10.13;9.32;;;;;;;;;;4941347;28;20042;-78
2023/05/11 05:15:38;;;;;;;9.80;9.00;;;;;;;;;;4970079;28;20019;-78
2023/05/11 05:18:04;;;;;;;10.15;8.77;;;;;;;;;;4950004;28;20125;-78
2023/05/11 05:20:29;;;;;;;8.70;7.70;;;;;;;;;;4945663;28;20019;-80
2023/05/11 05:22:54;;;;;;;11.23;10.27;;;;;;;;;;4944799;28;20937;-76
2023/05/11 05:25:25;;;;;;;10.07;9.07;;;;;;;;;;4962313;28;20023;-77
2023/05/11 05:27:50;;;;;;;7.45;6.75;;;;;;;;;;4968029;28;20026;-80
2023/05/11 05:30:17;;;;;;;8.38;7.55;;;;;;;;;;4935637;29;20499;-81
2023/05/11 05:32:42;;;;;;;8.05;7.22;;;;;;;;;;4932018;29;20164;-79
2023/05/11 05:35:08;;;;;;;6.82;6.22;;;;;;;;;;4965132;28;20031;-77
2023/05/11 05:37:33;;;;;;;5.38;4.88;;;;;;;;;;4953034;28;20042;-78
2023/05/11 05:40:00;;;;;;;5.28;4.82;;;;;;;;;;4949712;28;20019;-78
2023/05/11 05:42:25;;;;;;;5.63;5.00;;;;;;;;;;4951326;28;20031;-77
2023/05/11 05:44:51;;;;;;;5.07;4.57;;;;;;;;;;4952678;28;20139;-79
2023/05/11 05:47:16;;;;;;;5.05;4.55;;;;;;;;;;4965494;28;20018;-79
2023/05/11 05:49:41;;;;;;;5.07;3.92;;;;;;;;;;4966252;28;20070;-79
2023/05/11 05:52:08;;;;;;;4.75;4.45;;;;;;;;;;4964899;28;20037;-79
2023/05/11 05:54:33;;;;;;;5.45;4.00;;;;;;;;;;4966399;28;20023;-77
2023/05/11 05:56:59;;;;;;;5.32;4.18;;;;;;;;;;4946579;29;20034;-76
2023/05/11 05:59:24;;;;;;;4.00;3.60;;;;;;;;;;4957716;28;20517;-78
2023/05/11 06:01:50;;;;;;;4.03;3.72;;;;;;;;;;4951404;28;20023;-78
2023/05/11 06:04:15;;;;;;;4.15;3.80;;;;;;;;;;4963801;28;20027;-79
2023/05/11 06:06:41;;;;;;;4.00;3.63;;;;;;;;;;4965253;28;20023;-79
2023/05/11 06:09:08;;;;;;;4.10;3.70;;;;;;;;;;4945029;28;20034;-79
2023/05/11 06:11:40;;;;;;;5.45;3.65;;;;;;;;;;4987599;28;20015;-81
2023/05/11 06:14:06;;;;;;;3.40;3.03;;;;;;;;;;4952051;28;20037;-77
2023/05/11 06:16:31;;;;;;;3.20;2.92;;;;;;;;;;4964869;28;20050;-80
2023/05/11 06:18:57;;;;;;;4.97;2.53;;;;;;;;;;4970278;28;20022;-79
2023/05/11 06:21:22;;;;;;;3.78;2.97;;;;;;;;;;4960513;28;20019;-77
2023/05/11 06:29:25;;;;;;;5.50;3.00;;;;;;;;;;4553823;22;20287;-80
2023/05/11 06:32:06;;;;;;;4.45;3.42;;;;;;;;;;5231868;23;20053;-80
2023/05/11 06:34:59;;;;;;;4.18;3.00;;;;;;;;;;4965929;28;20065;-81
2023/05/11 06:37:48;;;;;;;3.13;2.40;;;;;;;;;;5009313;28;20481;-80
2023/05/11 06:40:30;;;;;;;3.42;2.58;;;;;;;;;;4982621;28;20045;-80
2023/05/11 06:42:55;;;;;;;4.38;2.33;;;;;;;;;;5563746;23;20029;-77
2023/05/11 06:45:24;;;;;;;2.85;2.60;;;;;;;;;;5163803;23;20045;-79
2023/05/11 06:47:49;;;;;;;3.20;2.90;;;;;;;;;;5008951;28;20042;-79
2023/05/11 06:50:20;;;;;;;4.65;2.70;;;;;;;;;;5043335;28;20073;-82
2023/05/11 06:55:21;;;;;;;3.05;2.30;;;;;;;;;;5054467;23;20054;-78
2023/05/11 07:03:15;;;;;;;2.20;2.10;;;;;;;;;;5216309;23;20062;-81
2023/05/11 07:16:22;;;;;;;2.95;2.42;;;;;;;;;;5583709;23;20050;-80
2023/05/11 07:27:45;;;;;;;2.58;2.38;;;;;;;;;;5398962;23;20111;-80
2023/05/11 07:36:18;;;;;;;5.20;2.35;;;;;;;;;;4948516;28;20050;-79
2023/05/11 07:38:44;;;;;;;7.35;2.28;;;;;;;;;;4941396;29;20139;-78
2023/05/11 07:41:16;;;;;;;2.92;2.60;;;;;;;;;;4942077;29;20015;-80
2023/05/11 07:43:43;;;;;;;4.22;2.92;;;;;;;;;;4951636;29;20165;-79
2023/05/11 07:46:11;;;;;;;4.78;2.75;;;;;;;;;;4961331;28;20019;-79
2023/05/11 07:48:43;;;;;;;6.40;2.50;;;;;;;;;;4935319;28;20050;-79
2023/05/11 07:51:09;;;;;;;2.78;2.40;;;;;;;;;;5108564;23;20080;-79
2023/05/11 07:53:36;;;;;;;4.00;2.63;;;;;;;;;;5050853;28;20471;-80
2023/05/11 07:56:05;;;;;;;3.15;2.83;;;;;;;;;;5043915;28;20021;-80
2023/05/11 07:58:31;;;;;;;3.00;2.55;;;;;;;;;;5045244;28;20020;-79
2023/05/11 08:00:57;;;;;;;7.55;2.20;;;;;;;;;;5047213;28;20038;-80
2023/05/11 08:03:38;;;;;;;4.22;2.47;;;;;;;;;;5048839;28;20049;-79
2023/05/11 08:06:03;;;;;;;2.53;2.33;;;;;;;;;;5044130;28;20028;-76
2023/05/11 08:08:30;;;;;;;2.90;2.33;;;;;;;;;;5046625;28;20491;-77
2023/05/11 08:10:55;;;;;;;2.08;1.80;;;;;;;;;;5022440;28;20026;-79
2023/05/11 08:13:25;;;;;;;2.67;2.33;;;;;;;;;;5039516;28;20060;-78
2023/05/11 08:15:51;;;;;;;3.50;2.15;;;;;;;;;;5015925;28;20060;-78
2023/05/11 08:18:17;;;;;;;3.92;2.13;;;;;;;;;;5036194;28;20020;-78
2023/05/11 08:21:22;;;;;;;2.35;2.15;;;;;;;;;;5050536;28;20005;-81
2023/05/11 08:23:48;;;;;;;2.35;2.15;;;;;;;;;;5039902;28;20487;-80
2023/05/11 08:26:14;;;;;;;2.53;2.30;;;;;;;;;;5041764;28;20100;-79
2023/05/11 08:28:40;;;;;;;2.20;1.77;;;;;;;;;;5048062;28;20123;-79
2023/05/11 08:31:09;;;;;;;2.53;2.33;;;;;;;;;;5032863;28;20025;-79
2023/05/11 08:33:35;;;;;;;2.47;1.80;;;;;;;;;;5022849;28;20057;-79
2023/05/11 08:36:06;;;;;;;2.40;2.03;;;;;;;;;;5035073;28;20049;-79
2023/05/11 08:38:34;;;;;;;4.03;1.77;;;;;;;;;;5040851;28;20029;-81
2023/05/11 08:41:00;;;;;;;2.33;2.13;;;;;;;;;;5045509;28;20030;-80
2023/05/11 08:43:45;;;;;;;3.13;2.10;;;;;;;;;;5045229;28;20037;-81
2023/05/11 08:46:16;;;;;;;5.53;2.63;;;;;;;;;;5041997;28;20120;-80
2023/05/11 08:48:43;;;;;;;3.83;2.88;;;;;;;;;;5036934;28;20029;-79
2023/05/11 08:51:08;;;;;;;3.65;2.80;;;;;;;;;;5030563;28;20161;-78
2023/05/11 08:53:34;;;;;;;2.53;2.33;;;;;;;;;;5029733;28;20037;-78
2023/05/11 08:56:00;;;;;;;2.40;2.20;;;;;;;;;;5031558;28;20028;-80
2023/05/11 08:58:36;;;;;;;2.17;1.98;;;;;;;;;;5024045;28;20029;-80
2023/05/11 09:01:03;;;;;;;2.95;1.85;;;;;;;;;;5040807;28;20029;-80
2023/05/11 09:03:30;;;;;;;3.88;2.05;;;;;;;;;;5032343;28;20033;-80
2023/05/11 09:06:03;;;;;;;6.55;3.70;;;;;;;;;;5040443;28;20048;-81
2023/05/11 09:18:22;;;;;;;3.42;2.45;;;;;;;;;;5024226;28;20040;-79
2023/05/11 09:20:51;;;;;;;3.25;1.98;;;;;;;;;;5027538;28;20400;-78
2023/05/11 09:23:35;;;;;;;4.47;2.13;;;;;;;;;;5000971;28;20018;-79
2023/05/11 09:26:45;;;;;;;2.40;2.20;;;;;;;;;;5212417;23;20077;-80
2023/05/11 09:32:17;;;;;;;2.13;1.80;;;;;;;;;;5575369;23;20026;-79
2023/05/11 09:35:08;;;;;;;1.77;1.67;;;;;;;;;;4992849;28;20036;-80
2023/05/11 09:40:57;;;;;;;2.20;2.00;;;;;;;;;;5005797;28;20058;-80
2023/05/11 09:43:26;;;;;;;3.10;2.13;;;;;;;;;;5000632;28;20108;-80
2023/05/11 09:46:06;;;;;;;2.83;1.90;;;;;;;;;;4985488;28;20041;-80
2023/05/11 09:48:32;;;;;;;3.38;1.92;;;;;;;;;;4983161;28;20098;-79
2023/05/11 09:51:06;;;;;;;3.50;2.40;;;;;;;;;;4972010;28;20062;-81
2023/05/11 09:57:01;;;;;;;2.63;2.30;;;;;;;;;;4996438;28;20026;-79
2023/05/11 09:59:40;;;;;;;2.13;1.83;;;;;;;;;;4986921;28;20022;-78
2023/05/11 10:13:26;;;;;;;3.42;1.65;;;;;;;;;;5308815;23;20188;-78
2023/05/11 10:19:17;;;;;;;3.00;2.03;;;;;;;;;;5320212;23;20036;-77
2023/05/11 10:24:33;;;;;;;2.08;1.52;;;;;;;;;;5899373;23;20097;-79
2023/05/11 10:29:47;;;;;;;1.80;1.50;;;;;;;;;;5016853;23;20031;-79
2023/05/11 10:38:26;;;;;;;3.38;1.58;;;;;;;;;;4841140;22;20054;-79
2023/05/11 10:41:00;;;;;;;3.75;1.63;;;;;;;;;;5036674;28;20067;-81
2023/05/11 10:43:46;;;;;;;2.25;1.70;;;;;;;;;;5018448;28;20026;-77
2023/05/11 10:49:58;;;;;;;2.90;1.80;;;;;;;;;;5237112;23;20058;-80
2023/05/11 11:01:29;;;;;;;4.43;1.92;;;;;;;;;;5335151;23;20050;-80
2023/05/11 11:57:45;;;;;;;4.40;1.85;;;;;;;;;;4972363;28;20086;-79
2023/05/11 12:10:38;;;;;;;2.22;1.90;;;;;;;;;;5003586;28;20048;-81
2023/05/11 12:19:16;;;;;;;2.88;2.22;;;;;;;;;;5152068;23;20053;-82
2023/05/11 12:22:02;;;;;;;2.22;2.05;;;;;;;;;;5054391;23;20522;-77
2023/05/11 12:24:28;;;;;;;2.55;1.80;;;;;;;;;;5030289;28;20014;-78
2023/05/11 12:29:37;;;;;;;3.08;2.50;;;;;;;;;;5035936;22;19918;-80
2023/05/11 12:42:36;;;;;;;2.10;1.45;;;;;;;;;;5580821;23;20030;-81
2023/05/11 12:45:28;;;;;;;3.72;1.77;;;;;;;;;;5010825;28;20066;-80
2023/05/11 12:47:57;;;;;;;2.65;1.88;;;;;;;;;;4998204;28;20069;-78
2023/05/11 12:50:26;;;;;;;2.25;1.50;;;;;;;;;;5014045;28;20065;-80
2023/05/11 12:53:23;;;;;;;5.63;2.22;;;;;;;;;;5225070;23;20046;-80
2023/05/11 12:56:07;;;;;;;2.08;1.73;;;;;;;;;;4997049;28;20066;-80
2023/05/11 12:58:38;;;;;;;2.50;1.80;;;;;;;;;;5010332;28;20082;-79
2023/05/11 13:01:10;;;;;;;5.65;2.03;;;;;;;;;;5005976;28;20559;-79
2023/05/11 13:03:38;;;;;;;3.40;1.80;;;;;;;;;;5011426;28;20033;-80
2023/05/11 13:06:04;;;;;;;4.45;2.13;;;;;;;;;;5006486;28;20048;-80
2023/05/11 13:08:36;;;;;;;2.22;1.73;;;;;;;;;;5245172;22;20072;-79
2023/05/11 13:16:32;;;;;;;2.65;1.55;;;;;;;;;;5195929;23;20053;-77
2023/05/11 13:19:11;;;;;;;2.83;2.15;;;;;;;;;;5027943;28;20026;-78
2023/05/11 13:21:39;;;;;;;1.70;1.60;;;;;;;;;;5030039;28;20040;-80
2023/05/11 13:24:08;;;;;;;1.97;1.30;;;;;;;;;;5031362;28;20034;-80
2023/05/11 13:26:33;;;;;;;1.30;1.20;;;;;;;;;;5033067;28;20099;-82
2023/05/11 13:28:58;;;;;;;4.78;2.15;;;;;;;;;;5047672;28;20029;-79
2023/05/11 13:34:43;;;;;;;2.22;1.90;;;;;;;;;;5213019;23;20060;-80
2023/05/11 13:37:35;;;;;;;2.47;2.13;;;;;;;;;;5446370;22;20069;-80
2023/05/11 13:40:01;;;;;;;3.28;2.15;;;;;;;;;;5008637;28;20045;-81
2023/05/11 13:47:41;;;;;;;2.90;1.55;;;;;;;;;;5349154;22;19936;-79
2023/05/11 13:50:08;;;;;;;3.13;1.95;;;;;;;;;;4992831;28;20045;-82
2023/05/11 13:52:39;;;;;;;2.15;1.95;;;;;;;;;;5586772;23;20050;-77
2023/05/11 14:06:01;;;;;;;3.22;1.77;;;;;;;;;;5022605;23;20045;-80
2023/05/11 14:08:28;;;;;;;2.08;1.58;;;;;;;;;;5021363;28;20045;-78
2023/05/11 14:10:54;;;;;;;2.50;2.15;;;;;;;;;;5007374;28;20049;-82
2023/05/11 14:13:25;;;;;;;4.07;3.78;;;;;;;;;;5007692;28;20014;-80
2023/05/11 14:15:55;;;;;;;4.55;4.13;;;;;;;;;;5010058;28;20519;-80
2023/05/11 14:18:23;;;;;;;10.23;4.20;;;;;;;;;;5014476;28;20029;-81
2023/05/11 14:20:59;;;;;;;5.50;3.85;;;;;;;;;;4989328;28;20013;-79
2023/05/11 14:23:27;;;;;;;5.53;3.50;;;;;;;;;;5132859;23;20113;-79
2023/05/11 14:26:09;;;;;;;4.15;3.45;;;;;;;;;;5015844;28;20030;-82
2023/05/11 14:28:35;;;;;;;3.90;3.42;;;;;;;;;;5027447;28;20037;-78
2023/05/11 14:31:09;;;;;;;3.50;3.20;;;;;;;;;;5029205;28;20018;-80
2023/05/11 14:34:00;;;;;;;5.85;3.72;;;;;;;;;;5010708;28;20084;-80
2023/05/11 14:36:27;;;;;;;4.70;4.30;;;;;;;;;;5029164;28;20014;-78
2023/05/11 14:38:52;;;;;;;6.15;5.40;;;;;;;;;;5025144;28;20472;-78
2023/05/11 14:41:22;;;;;;;7.38;5.13;;;;;;;;;;5010793;28;20048;-78
2023/05/11 14:43:51;;;;;;;6.18;4.60;;;;;;;;;;5013487;28;20033;-78
2023/05/11 14:46:19;;;;;;;5.95;5.40;;;;;;;;;;5010661;28;20038;-82
2023/05/11 14:49:08;;;;;;;5.72;5.22;;;;;;;;;;5027299;28;20030;-78
2023/05/11 14:51:41;;;;;;;8.25;5.20;;;;;;;;;;5009231;28;20058;-82
2023/05/11 14:54:12;;;;;;;7.63;5.55;;;;;;;;;;5016952;28;20014;-80
2023/05/11 14:56:37;;;;;;;11.27;6.15;;;;;;;;;;5013490;28;20007;-81
2023/05/11 14:59:02;;;;;;;8.25;5.43;;;;;;;;;;4998178;28;20025;-81
2023/05/11 15:01:29;;;;;;;5.65;5.20;;;;;;;;;;4997763;28;20499;-78
2023/05/11 15:03:56;;;;;;;5.43;5.03;;;;;;;;;;4993565;28;20025;-80
2023/05/11 15:06:22;;;;;;;6.10;5.50;;;;;;;;;;5031512;28;20105;-81
2023/05/11 15:08:51;;;;;;;5.90;5.30;;;;;;;;;;5035216;28;20030;-78
2023/05/11 15:11:17;;;;;;;6.50;5.60;;;;;;;;;;5015064;28;20102;-80
2023/05/11 15:19:34;;;;;;;5.78;5.03;;;;;;;;;;4990463;28;20042;-81
2023/05/11 15:22:04;;;;;;;6.45;4.10;;;;;;;;;;4989355;28;20039;-77
2023/05/11 15:24:29;;;;;;;7.28;4.93;;;;;;;;;;4991928;28;20054;-81
2023/05/11 15:26:56;;;;;;;5.18;4.70;;;;;;;;;;4988089;28;20023;-80
2023/05/11 15:29:22;;;;;;;5.03;4.63;;;;;;;;;;4967032;29;20600;-81
2023/05/11 15:31:47;;;;;;;5.30;4.03;;;;;;;;;;5137948;23;20120;-81
2023/05/11 15:36:48;;;;;;;5.78;4.30;;;;;;;;;;5131733;23;20050;-80
2023/05/11 15:56:09;;;;;;;4.80;4.40;;;;;;;;;;5455186;23;20073;-80
2023/05/11 16:40:20;;;;;;;6.10;4.00;;;;;;;;;;5814279;23;21024;-80
2023/05/11 16:42:47;;;;;;;3.97;3.67;;;;;;;;;;5194598;23;20061;-81
2023/05/11 17:08:41;;;;;;;6.45;4.32;;;;;;;;;;5900573;23;20038;-81
2023/05/11 17:18:52;;;;;;;5.57;5.07;;;;;;;;;;6035121;23;20040;-80
2023/05/11 17:21:17;;;;;;;7.07;5.40;;;;;;;;;;5001856;28;20014;-81
2023/05/11 17:23:43;;;;;;;6.05;5.50;;;;;;;;;;5484278;23;20807;-80
2023/05/11 17:31:19;;;;;;;7.18;6.45;;;;;;;;;;5573692;23;20046;-81
2023/05/11 17:33:44;;;;;;;7.32;6.72;;;;;;;;;;4997036;28;20034;-80
2023/05/11 17:36:11;;;;;;;7.00;6.50;;;;;;;;;;4999652;28;20083;-83
2023/05/11 17:41:12;;;;;;;7.57;6.78;;;;;;;;;;5842283;23;21024;-80
2023/05/11 17:46:14;;;;;;;7.60;7.10;;;;;;;;;;5952634;23;20467;-80
2023/05/11 17:48:40;;;;;;;8.88;8.18;;;;;;;;;;5002544;28;20081;-81
2023/05/11 17:56:16;;;;;;;8.65;8.05;;;;;;;;;;5886309;23;20072;-80
2023/05/11 18:01:16;;;;;;;8.85;7.07;;;;;;;;;;5165092;23;20058;-82
2023/05/11 18:03:42;;;;;;;9.27;8.57;;;;;;;;;;5008021;28;20483;-80
2023/05/11 18:06:07;;;;;;;8.23;7.50;;;;;;;;;;4996926;28;20045;-80
2023/05/11 18:08:35;;;;;;;9.00;8.10;;;;;;;;;;4988707;28;20034;-81
2023/05/11 18:11:00;;;;;;;9.93;9.13;;;;;;;;;;5010623;28;20030;-78
2023/05/11 18:13:27;;;;;;;11.68;8.70;;;;;;;;;;4994841;28;20057;-79
2023/05/11 18:15:53;;;;;;;9.63;8.10;;;;;;;;;;4995906;28;20041;-81
2023/05/11 18:18:18;;;;;;;8.88;8.00;;;;;;;;;;5005229;28;20023;-77
2023/05/11 18:20:45;;;;;;;10.88;7.40;;;;;;;;;;4998747;28;20023;-79
2023/05/11 18:23:11;;;;;;;8.80;6.85;;;;;;;;;;4987013;28;20073;-80
2023/05/11 18:28:11;;;;;;;6.78;5.90;;;;;;;;;;5066414;23;19926;-80
2023/05/11 18:30:37;;;;;;;6.18;5.70;;;;;;;;;;4984514;28;20027;-80
2023/05/11 18:33:02;;;;;;;7.38;5.95;;;;;;;;;;4986190;28;20459;-80
2023/05/11 18:35:30;;;;;;;7.50;5.90;;;;;;;;;;4989588;28;20027;-79
2023/05/11 18:37:57;;;;;;;6.35;5.82;;;;;;;;;;4988893;28;20023;-80
2023/05/11 18:40:23;;;;;;;6.18;5.68;;;;;;;;;;4984453;28;20054;-80
2023/05/11 18:42:48;;;;;;;6.50;6.03;;;;;;;;;;4981560;28;20077;-80
2023/05/11 18:45:14;;;;;;;6.15;5.60;;;;;;;;;;4991973;28;20029;-82
2023/05/11 18:47:43;;;;;;;5.78;5.30;;;;;;;;;;4980825;28;20061;-77
2023/05/11 18:50:08;;;;;;;6.30;5.80;;;;;;;;;;4990482;28;20049;-80
2023/05/11 18:52:34;;;;;;;6.78;5.65;;;;;;;;;;4999807;28;20014;-80
2023/05/11 18:54:59;;;;;;;6.40;5.90;;;;;;;;;;5006395;28;20142;-79
2023/05/11 18:57:25;;;;;;;6.15;5.60;;;;;;;;;;5013822;28;20022;-79
2023/05/11 18:59:51;;;;;;;5.80;5.30;;;;;;;;;;5012837;28;20014;-80
2023/05/11 19:02:16;;;;;;;6.25;5.75;;;;;;;;;;5007789;28;20023;-81
2023/05/11 19:04:42;;;;;;;6.28;5.70;;;;;;;;;;4995363;28;20007;-80
2023/05/11 19:07:07;;;;;;;8.07;6.10;;;;;;;;;;4996212;28;20039;-80
2023/05/11 19:09:36;;;;;;;6.60;5.97;;;;;;;;;;4981812;28;20035;-81
2023/05/11 19:12:02;;;;;;;9.90;8.00;;;;;;;;;;4976157;28;20062;-80
2023/05/11 19:14:28;;;;;;;8.10;7.45;;;;;;;;;;4969042;28;20032;-80
2023/05/11 19:16:53;;;;;;;7.15;6.38;;;;;;;;;;4972015;28;20026;-80
2023/05/11 19:19:19;;;;;;;7.40;6.35;;;;;;;;;;4972359;28;20019;-80
2023/05/11 19:21:44;;;;;;;6.50;5.97;;;;;;;;;;4988522;28;20042;-80
2023/05/11 19:24:10;;;;;;;8.18;6.45;;;;;;;;;;4971612;28;20019;-80
2023/05/11 19:26:37;;;;;;;5.90;5.45;;;;;;;;;;4976246;28;20047;-81
2023/05/11 19:29:03;;;;;;;5.97;5.47;;;;;;;;;;4972340;28;20051;-80
2023/05/11 19:31:30;;;;;;;6.32;5.72;;;;;;;;;;4971778;28;20028;-80
2023/05/11 19:33:56;;;;;;;5.78;5.28;;;;;;;;;;4967992;28;20055;-81
2023/05/11 19:36:21;;;;;;;5.50;5.13;;;;;;;;;;4968790;28;20055;-80
2023/05/11 19:38:47;;;;;;;5.80;5.30;;;;;;;;;;4967207;28;20628;-80
2023/05/11 19:41:12;;;;;;;5.13;4.80;;;;;;;;;;4987988;28;20015;-80
2023/05/11 19:43:38;;;;;;;5.35;4.90;;;;;;;;;;4972683;28;20035;-80
2023/05/11 19:46:03;;;;;;;5.25;4.72;;;;;;;;;;4966465;28;20394;-79
2023/05/11 19:48:29;;;;;;;7.60;4.93;;;;;;;;;;4964758;28;20042;-80
2023/05/11 19:50:55;;;;;;;6.22;4.63;;;;;;;;;;4964309;28;20492;-80
2023/05/11 19:53:20;;;;;;;5.40;4.30;;;;;;;;;;4966083;28;20053;-82
2023/05/11 19:55:46;;;;;;;5.03;4.57;;;;;;;;;;4981493;28;20020;-80
2023/05/11 19:58:11;;;;;;;5.90;4.28;;;;;;;;;;4966338;28;20000;-79
2023/05/11 20:00:40;;;;;;;6.13;4.75;;;;;;;;;;4965434;28;20019;-77
2023/05/11 20:03:06;;;;;;;11.60;4.63;;;;;;;;;;4983583;28;20043;-77
2023/05/11 20:05:31;;;;;;;5.35;3.95;;;;;;;;;;4970026;28;20378;-80
2023/05/11 20:07:57;;;;;;;8.10;3.92;;;;;;;;;;4965896;28;20084;-79
2023/05/11 20:10:22;;;;;;;3.80;3.50;;;;;;;;;;4961810;28;20043;-81
2023/05/11 20:12:48;;;;;;;3.67;3.42;;;;;;;;;;4965424;28;20060;-79